sensor_id;sensor_type;location;lat;lon;timestamp;pressure;altitude;pressure_sealevel;temperature;humidity
71573;BME280;59408;51.032;9.410;2023-04-08T00:02:06;99464.38;;;-0.82;100.00
71573;BME280;59408;51.032;9.410;2023-04-08T00:04:33;99466.78;;;-0.85;100.00
71573;BME280;59408;51.032;9.410;2023-04-08T00:06:59;99463.78;;;-0.89;100.00
71573;BME280;59408;51.032;9.410;2023-04-08T00:09:26;99462.44;;;-0.91;100.00
71573;BME280;59408;51.032;9.410;2023-04-08T00:11:53;99470.72;;;-0.93;100.00
71573;BME280;59408;51.032;9.410;2023-04-08T00:14:21;99460.81;;;-0.92;100.00
71573;BME280;59408;51.032;9.410;2023-04-08T00:16:47;99460.00;;;-0.93;100.00
71573;BME280;59408;51.032;9.410;2023-04-08T00:19:14;99465.63;;;-0.94;100.00
71573;BME280;59408;51.032;9.410;2023-04-08T00:21:41;99464.81;;;-0.95;100.00
71573;BME280;59408;51.032;9.410;2023-04-08T00:24:07;99462.38;;;-0.96;100.00
71573;BME280;59408;51.032;9.410;2023-04-08T00:26:34;99459.41;;;-1.00;100.00
71573;BME280;59408;51.032;9.410;2023-04-08T00:29:01;99457.00;;;-1.02;100.00
71573;BME280;59408;51.032;9.410;2023-04-08T00:31:29;99462.03;;;-1.05;100.00
71573;BME280;59408;51.032;9.410;2023-04-08T00:33:55;99454.75;;;-1.10;100.00
71573;BME280;59408;51.032;9.410;2023-04-08T00:36:23;99464.09;;;-1.12;100.00
71573;BME280;59408;51.032;9.410;2023-04-08T00:38:49;99455.75;;;-1.16;100.00
71573;BME280;59408;51.032;9.410;2023-04-08T00:41:16;99456.00;;;-1.17;100.00
71573;BME280;59408;51.032;9.410;2023-04-08T00:43:43;99461.34;;;-1.17;100.00
71573;BME280;59408;51.032;9.410;2023-04-08T00:46:09;99466.97;;;-1.19;100.00
71573;BME280;59408;51.032;9.410;2023-04-08T00:48:37;99448.75;;;-1.22;100.00
71573;BME280;59408;51.032;9.410;2023-04-08T00:54:19;99463.19;;;-1.23;100.00
71573;BME280;59408;51.032;9.410;2023-04-08T00:56:45;99453.78;;;-1.25;100.00
71573;BME280;59408;51.032;9.410;2023-04-08T00:59:12;99455.91;;;-1.27;100.00
71573;BME280;59408;51.032;9.410;2023-04-08T01:01:43;99468.72;;;-1.29;100.00
71573;BME280;59408;51.032;9.410;2023-04-08T01:04:21;99466.34;;;-1.26;100.00
71573;BME280;59408;51.032;9.410;2023-04-08T01:06:57;99461.56;;;-1.24;100.00
71573;BME280;59408;51.032;9.410;2023-04-08T01:09:27;99460.47;;;-1.28;100.00
71573;BME280;59408;51.032;9.410;2023-04-08T01:11:55;99467.69;;;-1.28;100.00
71573;BME280;59408;51.032;9.410;2023-04-08T01:14:25;99462.50;;;-1.35;100.00
71573;BME280;59408;51.032;9.410;2023-04-08T01:16:54;99464.38;;;-1.35;100.00
71573;BME280;59408;51.032;9.410;2023-04-08T01:19:27;99456.84;;;-1.39;100.00
71573;BME280;59408;51.032;9.410;2023-04-08T01:22:01;99460.84;;;-1.41;100.00
71573;BME280;59408;51.032;9.410;2023-04-08T01:24:32;99470.22;;;-1.39;100.00
71573;BME280;59408;51.032;9.410;2023-04-08T01:27:00;99464.31;;;-1.41;100.00
71573;BME280;59408;51.032;9.410;2023-04-08T01:29:28;99468.28;;;-1.43;100.00
71573;BME280;59408;51.032;9.410;2023-04-08T01:31:56;99470.16;;;-1.44;100.00
71573;BME280;59408;51.032;9.410;2023-04-08T01:34:24;99472.59;;;-1.42;100.00
71573;BME280;59408;51.032;9.410;2023-04-08T01:36:52;99474.44;;;-1.43;100.00
71573;BME280;59408;51.032;9.410;2023-04-08T01:39:24;99478.19;;;-1.44;100.00
71573;BME280;59408;51.032;9.410;2023-04-08T01:41:52;99481.66;;;-1.43;100.00
71573;BME280;59408;51.032;9.410;2023-04-08T01:44:21;99477.13;;;-1.43;100.00
71573;BME280;59408;51.032;9.410;2023-04-08T01:46:50;99471.28;;;-1.40;100.00
71573;BME280;59408;51.032;9.410;2023-04-08T01:49:19;99473.19;;;-1.35;100.00
71573;BME280;59408;51.032;9.410;2023-04-08T01:51:47;99476.44;;;-1.33;100.00
71573;BME280;59408;51.032;9.410;2023-04-08T01:54:14;99470.34;;;-1.28;100.00
71573;BME280;59408;51.032;9.410;2023-04-08T01:56:42;99474.69;;;-1.22;100.00
71573;BME280;59408;51.032;9.410;2023-04-08T01:59:13;99465.91;;;-1.18;100.00
71573;BME280;59408;51.032;9.410;2023-04-08T02:01:43;99472.38;;;-1.14;100.00
71573;BME280;59408;51.032;9.410;2023-04-08T02:04:11;99475.91;;;-1.08;100.00
71573;BME280;59408;51.032;9.410;2023-04-08T02:06:38;99475.41;;;-1.05;100.00
71573;BME280;59408;51.032;9.410;2023-04-08T02:09:05;99473.59;;;-1.00;100.00
71573;BME280;59408;51.032;9.410;2023-04-08T02:11:31;99473.66;;;-0.94;100.00
71573;BME280;59408;51.032;9.410;2023-04-08T02:13:58;99483.34;;;-0.88;100.00
71573;BME280;59408;51.032;9.410;2023-04-08T02:16:29;99480.41;;;-0.87;100.00
71573;BME280;59408;51.032;9.410;2023-04-08T02:19:04;99488.19;;;-0.85;100.00
71573;BME280;59408;51.032;9.410;2023-04-08T02:21:35;99482.59;;;-0.84;100.00
71573;BME280;59408;51.032;9.410;2023-04-08T02:24:06;99476.19;;;-0.83;100.00
71573;BME280;59408;51.032;9.410;2023-04-08T02:26:35;99476.47;;;-0.79;100.00
71573;BME280;59408;51.032;9.410;2023-04-08T02:29:04;99481.06;;;-0.75;100.00
71573;BME280;59408;51.032;9.410;2023-04-08T02:31:32;99482.16;;;-0.71;100.00
71573;BME280;59408;51.032;9.410;2023-04-08T02:34:01;99479.56;;;-0.66;100.00
71573;BME280;59408;51.032;9.410;2023-04-08T02:36:29;99478.78;;;-0.61;100.00
71573;BME280;59408;51.032;9.410;2023-04-08T02:38:57;99481.75;;;-0.57;100.00
71573;BME280;59408;51.032;9.410;2023-04-08T02:41:27;99492.25;;;-0.51;100.00
71573;BME280;59408;51.032;9.410;2023-04-08T02:43:54;99484.53;;;-0.47;100.00
71573;BME280;59408;51.032;9.410;2023-04-08T02:46:20;99481.59;;;-0.46;100.00
71573;BME280;59408;51.032;9.410;2023-04-08T02:48:47;99480.00;;;-0.42;100.00
71573;BME280;59408;51.032;9.410;2023-04-08T02:51:15;99489.16;;;-0.38;100.00
71573;BME280;59408;51.032;9.410;2023-04-08T02:53:42;99493.47;;;-0.37;100.00
71573;BME280;59408;51.032;9.410;2023-04-08T02:56:09;99479.78;;;-0.35;100.00
71573;BME280;59408;51.032;9.410;2023-04-08T02:58:36;99493.50;;;-0.32;100.00
71573;BME280;59408;51.032;9.410;2023-04-08T03:01:04;99491.13;;;-0.28;100.00
71573;BME280;59408;51.032;9.410;2023-04-08T03:03:31;99494.63;;;-0.22;100.00
71573;BME280;59408;51.032;9.410;2023-04-08T03:05:57;99495.75;;;-0.18;100.00
71573;BME280;59408;51.032;9.410;2023-04-08T03:08:26;99497.66;;;-0.14;100.00
71573;BME280;59408;51.032;9.410;2023-04-08T03:10:52;99486.41;;;-0.11;100.00
71573;BME280;59408;51.032;9.410;2023-04-08T03:13:19;99483.72;;;-0.11;100.00
71573;BME280;59408;51.032;9.410;2023-04-08T03:15:45;99483.19;;;-0.08;100.00
71573;BME280;59408;51.032;9.410;2023-04-08T03:18:12;99492.09;;;-0.02;100.00
71573;BME280;59408;51.032;9.410;2023-04-08T03:20:38;99487.28;;;-0.00;100.00
71573;BME280;59408;51.032;9.410;2023-04-08T03:23:05;99486.47;;;-0.01;100.00
71573;BME280;59408;51.032;9.410;2023-04-08T03:25:33;99492.13;;;0.03;100.00
71573;BME280;59408;51.032;9.410;2023-04-08T03:28:00;99493.22;;;0.07;100.00
71573;BME280;59408;51.032;9.410;2023-04-08T03:30:26;99500.75;;;0.10;100.00
71573;BME280;59408;51.032;9.410;2023-04-08T03:32:53;99508.28;;;0.13;100.00
71573;BME280;59408;51.032;9.410;2023-04-08T03:35:20;99498.66;;;0.17;100.00
71573;BME280;59408;51.032;9.410;2023-04-08T03:37:46;99494.09;;;0.18;100.00
71573;BME280;59408;51.032;9.410;2023-04-08T03:40:13;99497.88;;;0.22;100.00
71573;BME280;59408;51.032;9.410;2023-04-08T03:42:41;99497.34;;;0.25;100.00
71573;BME280;59408;51.032;9.410;2023-04-08T03:45:08;99491.75;;;0.26;100.00
71573;BME280;59408;51.032;9.410;2023-04-08T03:47:35;99491.44;;;0.28;100.00
71573;BME280;59408;51.032;9.410;2023-04-08T03:50:01;99496.31;;;0.31;100.00
71573;BME280;59408;51.032;9.410;2023-04-08T03:52:28;99488.81;;;0.33;100.00
71573;BME280;59408;51.032;9.410;2023-04-08T03:54:55;99490.19;;;0.35;100.00
71573;BME280;59408;51.032;9.410;2023-04-08T03:57:21;99489.88;;;0.37;100.00
71573;BME280;59408;51.032;9.410;2023-04-08T03:59:49;99488.56;;;0.39;100.00
71573;BME280;59408;51.032;9.410;2023-04-08T04:02:16;99494.50;;;0.41;100.00
71573;BME280;59408;51.032;9.410;2023-04-08T04:04:42;99490.50;;;0.44;100.00
71573;BME280;59408;51.032;9.410;2023-04-08T04:07:09;99494.25;;;0.48;100.00
71573;BME280;59408;51.032;9.410;2023-04-08T04:09:36;99490.50;;;0.49;100.00
71573;BME280;59408;51.032;9.410;2023-04-08T04:12:02;99495.59;;;0.50;100.00
71573;BME280;59408;51.032;9.410;2023-04-08T04:14:29;99487.84;;;0.54;100.00
71573;BME280;59408;51.032;9.410;2023-04-08T04:16:57;99490.00;;;0.57;100.00
71573;BME280;59408;51.032;9.410;2023-04-08T04:19:24;99493.78;;;0.61;100.00
71573;BME280;59408;51.032;9.410;2023-04-08T04:21:50;99492.16;;;0.65;100.00
71573;BME280;59408;51.032;9.410;2023-04-08T04:24:17;99501.84;;;0.66;100.00
71573;BME280;59408;51.032;9.410;2023-04-08T04:26:44;99500.25;;;0.70;100.00
71573;BME280;59408;51.032;9.410;2023-04-08T04:29:10;99499.19;;;0.71;100.00
71573;BME280;59408;51.032;9.410;2023-04-08T04:31:37;99502.41;;;0.73;100.00
71573;BME280;59408;51.032;9.410;2023-04-08T04:34:05;99500.81;;;0.77;100.00
71573;BME280;59408;51.032;9.410;2023-04-08T04:36:32;99510.22;;;0.80;100.00
71573;BME280;59408;51.032;9.410;2023-04-08T04:38:58;99506.47;;;0.81;100.00
71573;BME280;59408;51.032;9.410;2023-04-08T04:41:25;99514.00;;;0.84;100.00
71573;BME280;59408;51.032;9.410;2023-04-08T04:43:52;99519.66;;;0.87;100.00
71573;BME280;59408;51.032;9.410;2023-04-08T04:46:18;99521.28;;;0.88;100.00
71573;BME280;59408;51.032;9.410;2023-04-08T04:48:45;99521.28;;;0.94;100.00
71573;BME280;59408;51.032;9.410;2023-04-08T04:51:13;99522.88;;;0.95;100.00
71573;BME280;59408;51.032;9.410;2023-04-08T04:53:39;99528.81;;;0.97;100.00
71573;BME280;59408;51.032;9.410;2023-04-08T04:56:06;99532.56;;;1.01;100.00
71573;BME280;59408;51.032;9.410;2023-04-08T04:58:33;99537.41;;;1.04;100.00
71573;BME280;59408;51.032;9.410;2023-04-08T05:00:59;99528.28;;;1.05;100.00
71573;BME280;59408;51.032;9.410;2023-04-08T05:03:26;99529.66;;;1.07;100.00
71573;BME280;59408;51.032;9.410;2023-04-08T05:05:53;99529.66;;;1.12;100.00
71573;BME280;59408;51.032;9.410;2023-04-08T05:08:21;99535.84;;;1.13;100.00
71573;BME280;59408;51.032;9.410;2023-04-08T05:10:48;99532.91;;;1.14;100.00
71573;BME280;59408;51.032;9.410;2023-04-08T05:13:15;99535.31;;;1.16;100.00
71573;BME280;59408;51.032;9.410;2023-04-08T05:15:42;99529.13;;;1.15;100.00
71573;BME280;59408;51.032;9.410;2023-04-08T05:18:08;99534.78;;;1.19;100.00
71573;BME280;59408;51.032;9.410;2023-04-08T05:20:35;99540.69;;;1.21;100.00
71573;BME280;59408;51.032;9.410;2023-04-08T05:23:02;99544.47;;;1.25;100.00
71573;BME280;59408;51.032;9.410;2023-04-08T05:25:30;99546.63;;;1.28;100.00
71573;BME280;59408;51.032;9.410;2023-04-08T05:27:56;99547.97;;;1.31;100.00
71573;BME280;59408;51.032;9.410;2023-04-08T05:30:23;99551.47;;;1.31;100.00
71573;BME280;59408;51.032;9.410;2023-04-08T05:32:49;99550.13;;;1.34;100.00
71573;BME280;59408;51.032;9.410;2023-04-08T05:35:16;99550.13;;;1.39;100.00
71573;BME280;59408;51.032;9.410;2023-04-08T05:37:43;99555.25;;;1.40;100.00
71573;BME280;59408;51.032;9.410;2023-04-08T05:40:09;99549.63;;;1.42;100.00
71573;BME280;59408;51.032;9.410;2023-04-08T05:42:37;99552.03;;;1.43;100.00
71573;BME280;59408;51.032;9.410;2023-04-08T05:45:05;99556.59;;;1.48;100.00
71573;BME280;59408;51.032;9.410;2023-04-08T05:47:32;99556.34;;;1.49;100.00
71573;BME280;59408;51.032;9.410;2023-04-08T05:49:59;99565.25;;;1.55;100.00
71573;BME280;59408;51.032;9.410;2023-04-08T05:52:25;99568.19;;;1.58;100.00
71573;BME280;59408;51.032;9.410;2023-04-08T05:54:52;99566.84;;;1.61;100.00
71573;BME280;59408;51.032;9.410;2023-04-08T05:57:19;99560.91;;;1.64;100.00
71573;BME280;59408;51.032;9.410;2023-04-08T05:59:47;99568.47;;;1.67;100.00
71573;BME280;59408;51.032;9.410;2023-04-08T06:02:14;99572.78;;;1.68;100.00
71573;BME280;59408;51.032;9.410;2023-04-08T06:04:40;99566.88;;;1.71;100.00
71573;BME280;59408;51.032;9.410;2023-04-08T06:07:07;99577.88;;;1.75;100.00
71573;BME280;59408;51.032;9.410;2023-04-08T06:09:35;99577.09;;;1.79;100.00
71573;BME280;59408;51.032;9.410;2023-04-08T06:12:01;99573.84;;;1.82;100.00
71573;BME280;59408;51.032;9.410;2023-04-08T06:14:28;99574.16;;;1.91;100.00
71573;BME280;59408;51.032;9.410;2023-04-08T06:16:56;99580.88;;;1.98;100.00
71573;BME280;59408;51.032;9.410;2023-04-08T06:19:23;99576.03;;;2.06;100.00
71573;BME280;59408;51.032;9.410;2023-04-08T06:21:50;99583.56;;;2.09;100.00
71573;BME280;59408;51.032;9.410;2023-04-08T06:24:16;99587.31;;;2.13;100.00
71573;BME280;59408;51.032;9.410;2023-04-08T06:26:43;99593.78;;;2.17;100.00
71573;BME280;59408;51.032;9.410;2023-04-08T06:29:10;99598.34;;;2.16;100.00
71573;BME280;59408;51.032;9.410;2023-04-08T06:31:37;99597.78;;;2.19;100.00
71573;BME280;59408;51.032;9.410;2023-04-08T06:34:05;99601.84;;;2.22;100.00
71573;BME280;59408;51.032;9.410;2023-04-08T06:36:31;99604.81;;;2.25;100.00
71573;BME280;59408;51.032;9.410;2023-04-08T06:38:58;99605.34;;;2.27;100.00
71573;BME280;59408;51.032;9.410;2023-04-08T06:41:25;99597.25;;;2.32;100.00
71573;BME280;59408;51.032;9.410;2023-04-08T06:43:51;99603.72;;;2.42;100.00
71573;BME280;59408;51.032;9.410;2023-04-08T06:46:18;99610.16;;;2.51;100.00
71573;BME280;59408;51.032;9.410;2023-04-08T06:48:45;99612.84;;;2.61;100.00
71573;BME280;59408;51.032;9.410;2023-04-08T06:51:13;99600.69;;;2.68;100.00
71573;BME280;59408;51.032;9.410;2023-04-08T06:53:39;99603.09;;;2.80;100.00
71573;BME280;59408;51.032;9.410;2023-04-08T06:56:06;99607.13;;;2.88;100.00
71573;BME280;59408;51.032;9.410;2023-04-08T06:58:33;99608.72;;;2.99;100.00
71573;BME280;59408;51.032;9.410;2023-04-08T07:00:59;99618.66;;;3.08;100.00
71573;BME280;59408;51.032;9.410;2023-04-08T07:03:26;99610.78;;;3.12;98.30
71573;BME280;59408;51.032;9.410;2023-04-08T07:05:53;99615.34;;;3.22;100.00
71573;BME280;59408;51.032;9.410;2023-04-08T07:08:21;99612.38;;;3.23;98.14
71573;BME280;59408;51.032;9.410;2023-04-08T07:10:48;99619.34;;;3.29;98.31
71573;BME280;59408;51.032;9.410;2023-04-08T07:13:14;99623.88;;;3.39;100.00
71573;BME280;59408;51.032;9.410;2023-04-08T07:15:41;99626.03;;;3.42;100.00
71573;BME280;59408;51.032;9.410;2023-04-08T07:18:07;99627.88;;;3.46;100.00
71573;BME280;59408;51.032;9.410;2023-04-08T07:20:34;99617.91;;;3.52;100.00
71573;BME280;59408;51.032;9.410;2023-04-08T07:23:01;99642.13;;;3.57;100.00
71573;BME280;59408;51.032;9.410;2023-04-08T07:25:29;99638.63;;;3.62;100.00
71573;BME280;59408;51.032;9.410;2023-04-08T07:27:55;99646.97;;;3.60;100.00
71573;BME280;59408;51.032;9.410;2023-04-08T07:30:22;99644.25;;;3.65;100.00
71573;BME280;59408;51.032;9.410;2023-04-08T07:32:48;99648.31;;;3.63;100.00
71573;BME280;59408;51.032;9.410;2023-04-08T07:35:15;99660.16;;;3.67;100.00
71573;BME280;59408;51.032;9.410;2023-04-08T07:37:42;99655.84;;;3.71;100.00
71573;BME280;59408;51.032;9.410;2023-04-08T07:40:09;99651.47;;;3.75;99.61
71573;BME280;59408;51.032;9.410;2023-04-08T07:42:37;99652.50;;;3.84;98.57
71573;BME280;59408;51.032;9.410;2023-04-08T07:45:07;99656.47;;;3.97;100.00
71573;BME280;59408;51.032;9.410;2023-04-08T07:47:34;99659.72;;;3.99;100.00
71573;BME280;59408;51.032;9.410;2023-04-08T07:50:00;99662.66;;;4.02;100.00
71573;BME280;59408;51.032;9.410;2023-04-08T07:52:28;99667.38;;;4.20;100.00
71573;BME280;59408;51.032;9.410;2023-04-08T07:54:55;99662.97;;;4.35;100.00
71573;BME280;59408;51.032;9.410;2023-04-08T07:57:22;99669.38;;;4.44;99.48
71573;BME280;59408;51.032;9.410;2023-04-08T07:59:50;99673.59;;;4.55;98.78
71573;BME280;59408;51.032;9.410;2023-04-08T08:02:17;99670.31;;;4.58;98.34
71573;BME280;59408;51.032;9.410;2023-04-08T08:04:43;99673.59;;;4.55;98.01
71573;BME280;59408;51.032;9.410;2023-04-08T08:07:10;99665.72;;;4.58;96.79
71573;BME280;59408;51.032;9.410;2023-04-08T08:09:37;99674.53;;;4.69;97.85
71573;BME280;59408;51.032;9.410;2023-04-08T08:12:03;99674.19;;;4.81;97.91
71573;BME280;59408;51.032;9.410;2023-04-08T08:14:30;99682.22;;;4.86;97.56
71573;BME280;59408;51.032;9.410;2023-04-08T08:16:58;99682.16;;;4.96;96.66
71573;BME280;59408;51.032;9.410;2023-04-08T08:19:25;99681.41;;;4.90;94.89
71573;BME280;59408;51.032;9.410;2023-04-08T08:21:52;99685.56;;;5.07;96.89
71573;BME280;59408;51.032;9.410;2023-04-08T08:24:18;99692.88;;;5.06;95.19
71573;BME280;59408;51.032;9.410;2023-04-08T08:26:45;99694.22;;;5.09;95.63
71573;BME280;59408;51.032;9.410;2023-04-08T08:29:11;99686.28;;;5.17;96.74
71573;BME280;59408;51.032;9.410;2023-04-08T08:31:38;99697.25;;;5.26;96.70
71573;BME280;59408;51.032;9.410;2023-04-08T08:34:06;99697.25;;;5.26;95.36
71573;BME280;59408;51.032;9.410;2023-04-08T08:36:33;99700.78;;;5.26;95.26
71573;BME280;59408;51.032;9.410;2023-04-08T08:39:00;99703.22;;;5.23;95.51
71573;BME280;59408;51.032;9.410;2023-04-08T08:41:32;99708.06;;;5.26;96.04
71573;BME280;59408;51.032;9.410;2023-04-08T08:43:58;99710.09;;;5.15;96.02
71573;BME280;59408;51.032;9.410;2023-04-08T08:46:25;99717.31;;;5.20;96.28
71573;BME280;59408;51.032;9.410;2023-04-08T08:48:52;99718.03;;;5.30;96.94
71573;BME280;59408;51.032;9.410;2023-04-08T08:51:20;99714.13;;;5.42;97.08
71573;BME280;59408;51.032;9.410;2023-04-08T08:53:47;99708.44;;;5.43;95.58
71573;BME280;59408;51.032;9.410;2023-04-08T08:56:13;99716.47;;;5.48;95.75
71573;BME280;59408;51.032;9.410;2023-04-08T08:58:44;99720.63;;;5.41;95.08
71573;BME280;59408;51.032;9.410;2023-04-08T09:01:33;99713.56;;;5.45;95.20
71573;BME280;59408;51.032;9.410;2023-04-08T09:04:06;99714.84;;;5.47;95.39
71573;BME280;59408;51.032;9.410;2023-04-08T09:06:35;99727.56;;;5.47;94.43
71573;BME280;59408;51.032;9.410;2023-04-08T09:09:01;99733.56;;;5.44;94.31
71573;BME280;59408;51.032;9.410;2023-04-08T09:11:28;99732.69;;;5.48;95.36
71573;BME280;59408;51.032;9.410;2023-04-08T09:13:56;99733.75;;;5.52;95.67
71573;BME280;59408;51.032;9.410;2023-04-08T09:16:22;99740.72;;;5.58;96.84
71573;BME280;59408;51.032;9.410;2023-04-08T09:18:49;99738.81;;;5.59;96.29
71573;BME280;59408;51.032;9.410;2023-04-08T09:21:16;99742.41;;;5.54;95.04
71573;BME280;59408;51.032;9.410;2023-04-08T09:23:45;99740.41;;;5.60;95.90
71573;BME280;59408;51.032;9.410;2023-04-08T09:26:14;99740.78;;;5.53;95.28
71573;BME280;59408;51.032;9.410;2023-04-08T09:28:42;99743.13;;;5.60;94.38
71573;BME280;59408;51.032;9.410;2023-04-08T09:31:20;99737.59;;;5.70;93.85
71573;BME280;59408;51.032;9.410;2023-04-08T09:33:47;99732.09;;;5.99;94.85
71573;BME280;59408;51.032;9.410;2023-04-08T09:36:15;99747.97;;;6.24;93.12
71573;BME280;59408;51.032;9.410;2023-04-08T09:38:42;99746.81;;;6.30;92.38
71573;BME280;59408;51.032;9.410;2023-04-08T09:41:12;99750.03;;;6.32;93.07
71573;BME280;59408;51.032;9.410;2023-04-08T09:43:41;99736.34;;;6.42;93.67
71573;BME280;59408;51.032;9.410;2023-04-08T09:46:10;99742.59;;;6.57;92.46
71573;BME280;59408;51.032;9.410;2023-04-08T09:48:39;99750.84;;;6.51;91.33
71573;BME280;59408;51.032;9.410;2023-04-08T09:51:11;99747.06;;;6.66;91.91
71573;BME280;59408;51.032;9.410;2023-04-08T09:53:45;99753.53;;;6.70;91.41
71573;BME280;59408;51.032;9.410;2023-04-08T09:56:16;99753.09;;;6.63;90.24
71573;BME280;59408;51.032;9.410;2023-04-08T09:58:50;99749.84;;;6.80;91.29
71573;BME280;59408;51.032;9.410;2023-04-08T10:01:21;99752.34;;;6.76;89.19
71573;BME280;59408;51.032;9.410;2023-04-08T10:03:53;99761.41;;;6.85;88.08
71573;BME280;59408;51.032;9.410;2023-04-08T10:06:21;99752.94;;;6.73;88.77
71573;BME280;59408;51.032;9.410;2023-04-08T10:08:59;99754.00;;;6.91;90.41
71573;BME280;59408;51.032;9.410;2023-04-08T10:11:29;99751.59;;;7.03;89.57
71573;BME280;59408;51.032;9.410;2023-04-08T10:13:56;99754.53;;;7.07;87.90
71573;BME280;59408;51.032;9.410;2023-04-08T10:16:23;99754.94;;;7.00;87.69
71573;BME280;59408;51.032;9.410;2023-04-08T10:18:50;99748.72;;;7.13;87.76
71573;BME280;59408;51.032;9.410;2023-04-08T10:21:40;99755.00;;;6.95;89.11
71573;BME280;59408;51.032;9.410;2023-04-08T10:24:08;99754.72;;;7.10;87.58
71573;BME280;59408;51.032;9.410;2023-04-08T10:26:43;99752.06;;;7.24;91.44
71573;BME280;59408;51.032;9.410;2023-04-08T10:29:43;99761.41;;;7.18;88.18
71573;BME280;59408;51.032;9.410;2023-04-08T10:32:26;99766.84;;;7.18;88.38
71573;BME280;59408;51.032;9.410;2023-04-08T10:34:53;99761.25;;;6.96;87.83
71573;BME280;59408;51.032;9.410;2023-04-08T10:37:20;99765.13;;;7.22;89.13
71573;BME280;59408;51.032;9.410;2023-04-08T10:39:49;99759.88;;;7.12;87.71
71573;BME280;59408;51.032;9.410;2023-04-08T10:42:26;99766.31;;;7.16;86.78
71573;BME280;59408;51.032;9.410;2023-04-08T10:44:58;99759.63;;;7.27;87.65
71573;BME280;59408;51.032;9.410;2023-04-08T10:47:25;99763.94;;;7.28;87.60
71573;BME280;59408;51.032;9.410;2023-04-08T10:49:52;99764.72;;;7.15;87.89
71573;BME280;59408;51.032;9.410;2023-04-08T10:52:19;99762.16;;;7.05;88.11
71573;BME280;59408;51.032;9.410;2023-04-08T10:54:46;99759.00;;;7.16;87.98
71573;BME280;59408;51.032;9.410;2023-04-08T10:57:12;99757.28;;;7.20;89.55
71573;BME280;59408;51.032;9.410;2023-04-08T10:59:40;99758.88;;;7.21;88.12
71573;BME280;59408;51.032;9.410;2023-04-08T11:02:12;99765.28;;;7.12;88.25
71573;BME280;59408;51.032;9.410;2023-04-08T11:04:41;99768.22;;;7.15;87.50
71573;BME280;59408;51.032;9.410;2023-04-08T11:07:08;99759.19;;;7.20;89.30
71573;BME280;59408;51.032;9.410;2023-04-08T11:09:34;99762.31;;;7.27;88.87
71573;BME280;59408;51.032;9.410;2023-04-08T11:12:01;99767.59;;;7.37;89.40
71573;BME280;59408;51.032;9.410;2023-04-08T11:14:28;99764.88;;;7.51;89.44
71573;BME280;59408;51.032;9.410;2023-04-08T11:16:56;99765.88;;;7.41;87.92
71573;BME280;59408;51.032;9.410;2023-04-08T11:19:23;99775.06;;;7.59;87.91
71573;BME280;59408;51.032;9.410;2023-04-08T11:21:50;99770.03;;;7.66;85.63
71573;BME280;59408;51.032;9.410;2023-04-08T11:24:17;99777.16;;;7.62;87.84
71573;BME280;59408;51.032;9.410;2023-04-08T11:26:43;99778.75;;;7.49;88.94
71573;BME280;59408;51.032;9.410;2023-04-08T11:29:10;99778.25;;;7.34;87.12
71573;BME280;59408;51.032;9.410;2023-04-08T11:31:37;99775.22;;;7.35;89.10
71573;BME280;59408;51.032;9.410;2023-04-08T11:34:05;99772.34;;;7.45;87.45
71573;BME280;59408;51.032;9.410;2023-04-08T11:36:33;99772.94;;;7.56;87.12
71573;BME280;59408;51.032;9.410;2023-04-08T11:39:00;99770.91;;;7.75;87.48
71573;BME280;59408;51.032;9.410;2023-04-08T11:41:35;99778.75;;;8.04;87.00
71573;BME280;59408;51.032;9.410;2023-04-08T11:44:01;99773.72;;;8.11;86.04
71573;BME280;59408;51.032;9.410;2023-04-08T11:46:28;99766.28;;;8.17;86.32
71573;BME280;59408;51.032;9.410;2023-04-08T11:49:03;99767.63;;;8.42;88.08
71573;BME280;59408;51.032;9.410;2023-04-08T11:51:31;99765.97;;;8.54;84.03
71573;BME280;59408;51.032;9.410;2023-04-08T11:53:58;99752.19;;;8.51;83.03
71573;BME280;59408;51.032;9.410;2023-04-08T11:56:25;99768.63;;;8.68;82.36
71573;BME280;59408;51.032;9.410;2023-04-08T11:58:51;99765.00;;;8.72;83.92
71573;BME280;59408;51.032;9.410;2023-04-08T12:01:19;99759.19;;;8.88;82.71
71573;BME280;59408;51.032;9.410;2023-04-08T12:03:56;99760.41;;;9.04;82.58
71573;BME280;59408;51.032;9.410;2023-04-08T12:06:24;99754.31;;;8.98;80.26
71573;BME280;59408;51.032;9.410;2023-04-08T12:08:53;99766.28;;;8.75;82.95
71573;BME280;59408;51.032;9.410;2023-04-08T12:11:20;99761.41;;;9.08;80.49
71573;BME280;59408;51.032;9.410;2023-04-08T12:13:46;99764.56;;;9.55;79.95
71573;BME280;59408;51.032;9.410;2023-04-08T12:16:13;99772.56;;;9.51;79.48
71573;BME280;59408;51.032;9.410;2023-04-08T12:18:40;99762.91;;;9.45;79.77
71573;BME280;59408;51.032;9.410;2023-04-08T12:21:06;99769.59;;;9.39;81.00
71573;BME280;59408;51.032;9.410;2023-04-08T12:23:33;99766.56;;;9.40;80.04
71573;BME280;59408;51.032;9.410;2023-04-08T12:26:01;99758.41;;;9.40;79.80
71573;BME280;59408;51.032;9.410;2023-04-08T12:28:28;99768.56;;;9.57;79.79
71573;BME280;59408;51.032;9.410;2023-04-08T12:30:54;99757.84;;;9.61;77.64
71573;BME280;59408;51.032;9.410;2023-04-08T12:33:21;99759.53;;;9.79;78.58
71573;BME280;59408;51.032;9.410;2023-04-08T12:35:48;99762.19;;;9.62;77.35
71573;BME280;59408;51.032;9.410;2023-04-08T12:38:14;99764.81;;;9.84;78.07
71573;BME280;59408;51.032;9.410;2023-04-08T12:40:41;99762.22;;;9.70;78.36
71573;BME280;59408;51.032;9.410;2023-04-08T12:43:09;99761.94;;;9.41;77.61
71573;BME280;59408;51.032;9.410;2023-04-08T12:45:35;99763.72;;;9.45;78.86
71573;BME280;59408;51.032;9.410;2023-04-08T12:48:02;99759.31;;;9.67;78.46
71573;BME280;59408;51.032;9.410;2023-04-08T12:50:29;99754.09;;;9.87;78.35
71573;BME280;59408;51.032;9.410;2023-04-08T12:52:55;99760.00;;;10.81;76.75
71573;BME280;59408;51.032;9.410;2023-04-08T12:55:22;99755.47;;;10.68;74.83
71573;BME280;59408;51.032;9.410;2023-04-08T12:57:49;99763.03;;;10.53;74.30
71573;BME280;59408;51.032;9.410;2023-04-08T13:00:17;99763.50;;;10.47;73.94
71573;BME280;59408;51.032;9.410;2023-04-08T13:02:43;99756.88;;;10.22;75.25
71573;BME280;59408;51.032;9.410;2023-04-08T13:05:10;99766.06;;;10.43;74.89
71573;BME280;59408;51.032;9.410;2023-04-08T13:07:37;99753.63;;;11.32;74.06
71573;BME280;59408;51.032;9.410;2023-04-08T13:10:04;99758.53;;;11.01;71.79